Rockvale, Tennessee
Current Conditions -  °F | °C
As of 5:53 AM on Sunday 23 Nov 2014 (Local Time) from KBNA Reporting Station
Overcast Overcast  
Wind Chill: 54°   Ceiling: 4900
Heat Index: 54°   Visibility: 10mi
Dew Point: 42°   Wind: 5mph
Humidity: 64%   Direction: 90°E
Pressure: 29.92"   Gusts: NA
Location:  35.76°N, 86.53°W
Report Text: KBNA 231153Z 09004KT 10SM BKN049 OVC100 12/06 A2992 RMK AO2 SLP130 T01220056 10133 20111 58019
Loading
Personal Weather Stations






























Interactive Weather Map New forecast layout! Learn more

10-Day Weather Forecast

Advertisements
Track Severe Weather on mobile